• Join FlightAware (Why Join?)
  • Login
  • US Flag 
05:33PM EST


 

Airport Tracker/Info


-or-


 

Live Flight TrackerFlight Track Log ✈ UPS1337 ✈ 28-Jul-2014 ✈ KPIE - KSDF

Flight Track Log - Related Links

Times and Time Zones

All times are in EDT time to prevent confusion due to time zone crossing. See the UPS1337 flight status page for this flight to view local times or setup timezone preferences in your user account.

Time Position Orientation Groundspeed Altitude Reporting Facility
EDT Latitude Longitude Course Direction KTS MPH feet Rate Location/Type
09:39PM 27.9000 -82.6833 180° South 168 193 800  Level Tampa TRACON
09:41PM 27.8333 -82.6833 180° South 185 213 3,800 2,760 Climbing Tampa TRACON
09:42PM 27.8667 -82.7333 307° West 240 276 7,800 2,520 Climbing Tampa TRACON
09:48PM 28.4342 -82.6064 North 446 513 21,300 2,340 Climbing FlightAware ADS-B (KMCO)
09:49PM 28.5477 -82.6031 North 460 529 23,200 2,040 Climbing FlightAware ADS-B (KMCO)
09:49PM 28.5943 -82.6017 North 465 535 24,300 1,800 Climbing FlightAware ADS-B (KMCO)
09:50PM 28.7855 -82.5959 North 484 557 26,500 1,920 Climbing FlightAware ADS-B (KMCO)
09:52PM 29.0189 -82.5888 North 475 547 30,200 1,320 Climbing FlightAware ADS-B (KMCO)
09:56PM 29.4894 -82.5744 North 441 507 33,900 960 Climbing FlightAware ADS-B (KMCO)
09:57PM 29.6331 -82.5700 North 448 516 35,000 240 Climbing FlightAware ADS-B (KMCO)
09:59PM 29.9548 -82.5597 North 434 499 35,000  Level FlightAware ADS-B (KMCO)
10:00PM 30.0299 -82.5573 North 436 502 35,000  Level FlightAware ADS-B (KMCO)
10:01PM 30.1592 -82.5530 North 438 504 35,000  Level FlightAware ADS-B (KMCO)
10:02PM 30.2354 -82.5506 North 437 503 35,000 -60 Level FlightAware ADS-B (KMCO)
10:03PM 30.3956 -82.5481 North 435 501 34,900  Descending Jacksonville Center
10:04PM 30.4904 -82.5424 North 440 506 35,000 60 Climbing FlightAware ADS-B (KMCO)
10:04PM 30.4917 -82.5431 North 440 506 35,000 -120 Level Jacksonville Center
10:05PM 30.6253 -82.5425 360° North 440 506 34,900  Descending Jacksonville Center
10:06PM 30.7506 -82.5372 North 440 506 35,000  Climbing Jacksonville Center
10:07PM 30.8694 -82.5344 North 440 506 34,900 -60 Descending Jacksonville Center
10:08PM 30.9947 -82.5292 North 435 501 34,900  Level Jacksonville Center
10:09PM 31.1200 -82.5261 North 441 507 34,900  Level Jacksonville Center
10:10PM 31.2431 -82.5233 North 441 507 34,900  Level Jacksonville Center
10:11PM 31.3767 -82.5131 North 441 507 35,000  Climbing Jacksonville Center
10:12PM 31.5019 -82.5100 North 441 507 35,000  Level Jacksonville Center
10:13PM 31.6231 -82.5364 349° North 435 501 35,000  Level Jacksonville Center
10:14PM 31.7294 -82.5764 342° North 436 502 35,000  Level Atlanta Center
10:15PM 31.8344 -82.6089 345° North 436 502 35,000  Level Atlanta Center
10:16PM 31.9517 -82.6461 345° North 436 502 35,000  Level Atlanta Center
10:17PM 32.0669 -82.6858 344° North 436 502 35,000  Level Atlanta Center
10:18PM 32.1819 -82.7236 344° North 436 502 35,000  Level Atlanta Center
10:19PM 32.2972 -82.7636 344° North 431 496 35,000  Level Atlanta Center
10:20PM 32.4103 -82.7989 345° North 425 489 35,000  Level Atlanta Center
10:21PM 32.5319 -82.8414 344° North 412 474 35,000  Level Atlanta Center
10:22PM 32.6367 -82.8769 344° North 412 474 35,000  Level Atlanta Center
10:23PM 32.7517 -82.9175 343° North 423 487 35,000  Level Atlanta Center
10:24PM 32.8669 -82.9556 345° North 423 487 35,000  Level Atlanta Center
10:25PM 32.9778 -82.9939 344° North 418 481 35,000  Level Atlanta Center
10:26PM 33.0931 -83.0322 344° North 418 481 35,000  Level Atlanta Center
10:27PM 33.2039 -83.0706 344° North 418 481 35,000  Level Atlanta Center
10:28PM 33.3169 -83.1067 North 418 481 35,000  Level Atlanta Center
10:29PM 33.4300 -83.1478 343° North 418 481 35,000  Level Atlanta Center
10:30PM 33.5386 -83.1864 343° North 418 481 35,000  Level Atlanta Center
10:31PM 33.6517 -83.2228 345° North 418 481 35,000  Level Atlanta Center
10:32PM 33.7667 -83.2592 345° North 418 481 35,000  Level Atlanta Center
10:33PM 33.8797 -83.3006 343° North 418 481 35,000  Level Atlanta Center
10:34PM 33.9906 -83.3397 344° North 418 481 35,000  Level Atlanta Center
10:35PM 34.1075 -83.3714 347° North 418 481 35,000  Level Atlanta Center
10:36PM 34.2206 -83.4033 347° North 418 481 35,000  Level Atlanta Center
10:37PM 34.3333 -83.4350 347° North 413 475 35,000  Level Atlanta Center
10:38PM 34.4461 -83.4669 347° North 413 475 35,000  Level Atlanta Center
10:39PM 34.5694 -83.5014 347° North 413 475 35,000  Level Atlanta Center
10:40PM 34.6697 -83.5336 345° North 413 475 35,000  Level Atlanta Center
10:41PM 34.7972 -83.5683 347° North 413 475 35,000  Level Atlanta Center
10:42PM 34.9100 -83.5981 348° North 420 483 35,000  Level Atlanta Center
10:43PM 35.0250 -83.6381 344° North 414 476 35,000  Level Atlanta Center
10:44PM 35.1378 -83.6706 347° North 414 476 35,000  Level Atlanta Center
10:45PM 35.2483 -83.7006 348° North 414 476 35,000  Level Atlanta Center
10:46PM 35.3611 -83.7358 346° North 414 476 35,000  Level Atlanta Center
10:47PM 35.4717 -83.7683 347° North 414 476 35,000  Level Atlanta Center
10:48PM 35.5844 -83.8014 347° North 414 476 35,000  Level Atlanta Center
10:49PM 35.6953 -83.8342 346° North 414 476 35,000  Level Atlanta Center
10:50PM 35.8058 -83.8647 347° North 409 471 35,000  Level Atlanta Center
10:51PM 35.9164 -83.9028 344° North 414 476 35,000  Level Atlanta Center
10:52PM 36.0144 -83.9592 335° Northwest 404 465 35,000 -240 Level Atlanta Center
10:54PM 36.2039 -84.0722 334° Northwest 394 453 34,300 -660 Descending Indianapolis Center
10:55PM 36.3019 -84.1303 334° Northwest 393 452 33,000 -1,440 Descending Indianapolis Center
10:56PM 36.4222 -84.2033 334° Northwest 397 457 31,400 -1,320 Descending Indianapolis Center
10:57PM 36.5269 -84.2669 334° Northwest 408 470 30,300 -1,500 Descending Indianapolis Center
11:00PM 36.8467 -84.4583 334° Northwest 425 489 25,300 -1,560 Descending Indianapolis Center
11:01PM 36.9469 -84.5197 334° Northwest 424 488 24,000 -1,260 Descending Indianapolis Center
11:02PM 37.0547 -84.5847 334° Northwest 415 478 22,800 -1,260 Descending Indianapolis Center
11:03PM 37.1033 -84.6142 334° Northwest 407 468 22,300 -1,800 Descending FlightAware ADS-B (KBRY)
11:03PM 37.1575 -84.6478 334° Northwest 414 476 21,000 -2,940 Descending Indianapolis Center
11:04PM 37.1137 -84.6204 334° Northwest 396 456 19,900 -3,000 Descending FlightAware ADS-B (KBRY)
11:04PM 37.2567 -84.7083 334° Northwest 402 463 18,000 -1,620 Descending Indianapolis Center
11:06PM 37.3071 -84.7351 334° Northwest  Level FlightAware Approximate
11:10PM 37.7298 -85.0560 312° West 283 326 9,900  Level FlightAware ADS-B (KBRY)
11:11PM 37.7815 -85.1283 312° West 270 311 8,500 -1,500 Descending FlightAware ADS-B (KBRY)
11:12PM 37.8412 -85.2101 312° West 263 303 6,600 -1,620 Descending FlightAware ADS-B (KBRY)
11:13PM 37.8870 -85.2814 292° West 260 299 5,000 -1,560 Descending FlightAware ADS-B (KBRY)
11:14PM 37.9077 -85.3675 286° West 254 292 3,500 -1,020 Descending FlightAware ADS-B (KBRY)
11:15PM 37.9280 -85.4565 286° West 239 275 2,900 -300 Descending FlightAware ADS-B (KBRY)
11:16PM 37.9463 -85.5369 286° West 237 273 2,900  Level FlightAware ADS-B (KBRY)
11:17PM 37.9713 -85.6100 314° West 211 243 2,900  Level FlightAware ADS-B (KBRY)
11:18PM 38.0091 -85.6602 313° West 183 211 2,900 -120 Level FlightAware ADS-B (KBRY)
11:19PM 38.0496 -85.6846 345° North 154 177 2,700 -480 Descending FlightAware ADS-B (KBRY)
11:20PM 38.0874 -85.6971 345° North 119 137 2,000 -720 Descending FlightAware ADS-B (KBRY)
11:21PM 38.1135 -85.7063 345° North 113 130 1,400 -600 Descending FlightAware ADS-B (KBRY)
11:22PM 38.1500 -85.7167 208° Southwest 115 132 900 -480 Descending Louisville TRACON
11:23PM 38.1741 -85.7365 211° Southwest  Level Estimated
11:24PM 38.1667 -85.7333 208° Southwest  Level FlightAware Approximate
11:27PM 38.1667 -85.7333 208° Southwest  Level FlightAware Approximate